sensor_id;sensor_type;location;lat;lon;timestamp;P1;durP1;ratioP1;P2;durP2;ratioP2
8060;SDS011;4073;42.626;25.386;2023-08-06T00:01:28;8.73;;;7.90;;
8060;SDS011;4073;42.626;25.386;2023-08-06T00:03:54;8.97;;;8.10;;
8060;SDS011;4073;42.626;25.386;2023-08-06T00:06:19;11.80;;;9.07;;
8060;SDS011;4073;42.626;25.386;2023-08-06T00:08:45;10.07;;;7.93;;
8060;SDS011;4073;42.626;25.386;2023-08-06T00:11:10;8.93;;;8.13;;
8060;SDS011;4073;42.626;25.386;2023-08-06T00:13:36;10.73;;;8.20;;
8060;SDS011;4073;42.626;25.386;2023-08-06T00:16:11;9.83;;;8.43;;
8060;SDS011;4073;42.626;25.386;2023-08-06T00:18:37;8.80;;;7.97;;
8060;SDS011;4073;42.626;25.386;2023-08-06T00:21:03;9.03;;;8.13;;
8060;SDS011;4073;42.626;25.386;2023-08-06T00:23:28;10.40;;;8.97;;
8060;SDS011;4073;42.626;25.386;2023-08-06T00:25:54;13.43;;;9.17;;
8060;SDS011;4073;42.626;25.386;2023-08-06T00:28:19;9.90;;;8.90;;
8060;SDS011;4073;42.626;25.386;2023-08-06T00:30:45;9.50;;;8.43;;
8060;SDS011;4073;42.626;25.386;2023-08-06T00:33:10;10.13;;;9.17;;
8060;SDS011;4073;42.626;25.386;2023-08-06T00:35:35;10.93;;;8.20;;
8060;SDS011;4073;42.626;25.386;2023-08-06T00:38:02;10.07;;;9.07;;
8060;SDS011;4073;42.626;25.386;2023-08-06T00:40:27;8.90;;;8.00;;
8060;SDS011;4073;42.626;25.386;2023-08-06T00:42:55;9.80;;;8.70;;
8060;SDS011;4073;42.626;25.386;2023-08-06T00:45:21;12.53;;;8.93;;
8060;SDS011;4073;42.626;25.386;2023-08-06T00:47:47;10.20;;;9.30;;
8060;SDS011;4073;42.626;25.386;2023-08-06T00:50:13;9.03;;;8.23;;
8060;SDS011;4073;42.626;25.386;2023-08-06T00:52:38;10.67;;;8.40;;
8060;SDS011;4073;42.626;25.386;2023-08-06T00:55:05;12.83;;;8.73;;
8060;SDS011;4073;42.626;25.386;2023-08-06T00:57:31;10.23;;;9.10;;
8060;SDS011;4073;42.626;25.386;2023-08-06T00:59:57;9.73;;;8.80;;
8060;SDS011;4073;42.626;25.386;2023-08-06T01:02:23;10.23;;;8.60;;
8060;SDS011;4073;42.626;25.386;2023-08-06T01:04:48;9.97;;;8.03;;
8060;SDS011;4073;42.626;25.386;2023-08-06T01:12:35;10.87;;;9.70;;
8060;SDS011;4073;42.626;25.386;2023-08-06T01:15:20;9.70;;;8.80;;
8060;SDS011;4073;42.626;25.386;2023-08-06T01:17:49;10.17;;;8.93;;
8060;SDS011;4073;42.626;25.386;2023-08-06T01:20:15;9.97;;;8.97;;
8060;SDS011;4073;42.626;25.386;2023-08-06T01:22:40;10.33;;;9.33;;
8060;SDS011;4073;42.626;25.386;2023-08-06T01:25:06;10.77;;;9.67;;
8060;SDS011;4073;42.626;25.386;2023-08-06T01:27:33;13.60;;;9.57;;
8060;SDS011;4073;42.626;25.386;2023-08-06T01:30:29;10.83;;;9.53;;
8060;SDS011;4073;42.626;25.386;2023-08-06T01:33:00;9.77;;;8.90;;
8060;SDS011;4073;42.626;25.386;2023-08-06T01:35:29;10.13;;;9.17;;
8060;SDS011;4073;42.626;25.386;2023-08-06T01:37:55;11.00;;;8.47;;
8060;SDS011;4073;42.626;25.386;2023-08-06T01:40:21;9.70;;;8.63;;
8060;SDS011;4073;42.626;25.386;2023-08-06T01:42:47;9.10;;;8.30;;
8060;SDS011;4073;42.626;25.386;2023-08-06T01:45:12;10.87;;;8.57;;
8060;SDS011;4073;42.626;25.386;2023-08-06T01:47:38;11.10;;;8.97;;
8060;SDS011;4073;42.626;25.386;2023-08-06T01:50:03;10.33;;;8.73;;
8060;SDS011;4073;42.626;25.386;2023-08-06T01:52:29;10.20;;;8.80;;
8060;SDS011;4073;42.626;25.386;2023-08-06T01:54:55;13.10;;;9.13;;
8060;SDS011;4073;42.626;25.386;2023-08-06T01:57:21;10.37;;;9.47;;
8060;SDS011;4073;42.626;25.386;2023-08-06T01:59:46;9.93;;;8.93;;
8060;SDS011;4073;42.626;25.386;2023-08-06T02:02:12;10.17;;;9.10;;
8060;SDS011;4073;42.626;25.386;2023-08-06T02:04:37;11.90;;;9.37;;
8060;SDS011;4073;42.626;25.386;2023-08-06T02:07:03;11.23;;;9.60;;
8060;SDS011;4073;42.626;25.386;2023-08-06T02:09:28;9.60;;;8.63;;
8060;SDS011;4073;42.626;25.386;2023-08-06T02:11:54;11.43;;;9.33;;
8060;SDS011;4073;42.626;25.386;2023-08-06T02:14:19;11.33;;;10.23;;
8060;SDS011;4073;42.626;25.386;2023-08-06T02:16:45;14.13;;;10.63;;
8060;SDS011;4073;42.626;25.386;2023-08-06T02:19:10;12.73;;;10.77;;
8060;SDS011;4073;42.626;25.386;2023-08-06T02:21:36;11.40;;;10.17;;
8060;SDS011;4073;42.626;25.386;2023-08-06T02:24:01;11.60;;;10.20;;
8060;SDS011;4073;42.626;25.386;2023-08-06T02:26:27;11.83;;;10.57;;
8060;SDS011;4073;42.626;25.386;2023-08-06T02:28:52;12.00;;;10.83;;
8060;SDS011;4073;42.626;25.386;2023-08-06T02:31:18;12.10;;;10.90;;
8060;SDS011;4073;42.626;25.386;2023-08-06T02:33:43;13.03;;;10.57;;
8060;SDS011;4073;42.626;25.386;2023-08-06T02:36:09;13.20;;;10.73;;
8060;SDS011;4073;42.626;25.386;2023-08-06T02:38:34;12.23;;;10.47;;
8060;SDS011;4073;42.626;25.386;2023-08-06T02:41:02;11.63;;;10.57;;
8060;SDS011;4073;42.626;25.386;2023-08-06T02:43:28;12.70;;;11.40;;
8060;SDS011;4073;42.626;25.386;2023-08-06T02:45:56;16.47;;;11.60;;
8060;SDS011;4073;42.626;25.386;2023-08-06T02:48:23;12.07;;;10.87;;
8060;SDS011;4073;42.626;25.386;2023-08-06T02:50:48;11.63;;;10.43;;
8060;SDS011;4073;42.626;25.386;2023-08-06T02:53:13;12.97;;;11.27;;
8060;SDS011;4073;42.626;25.386;2023-08-06T02:55:44;11.80;;;10.70;;
8060;SDS011;4073;42.626;25.386;2023-08-06T02:58:13;14.80;;;10.83;;
8060;SDS011;4073;42.626;25.386;2023-08-06T03:00:39;12.13;;;10.93;;
8060;SDS011;4073;42.626;25.386;2023-08-06T03:03:05;11.93;;;10.83;;
8060;SDS011;4073;42.626;25.386;2023-08-06T03:05:30;12.73;;;11.53;;
8060;SDS011;4073;42.626;25.386;2023-08-06T03:07:56;13.53;;;11.97;;
8060;SDS011;4073;42.626;25.386;2023-08-06T03:10:21;13.17;;;10.90;;
8060;SDS011;4073;42.626;25.386;2023-08-06T03:12:46;11.73;;;10.67;;
8060;SDS011;4073;42.626;25.386;2023-08-06T03:15:12;12.40;;;10.80;;
8060;SDS011;4073;42.626;25.386;2023-08-06T03:17:38;12.67;;;11.47;;
8060;SDS011;4073;42.626;25.386;2023-08-06T03:20:04;12.20;;;10.90;;
8060;SDS011;4073;42.626;25.386;2023-08-06T03:22:30;15.10;;;11.93;;
8060;SDS011;4073;42.626;25.386;2023-08-06T03:24:55;12.07;;;10.67;;
8060;SDS011;4073;42.626;25.386;2023-08-06T03:27:20;12.23;;;11.00;;
8060;SDS011;4073;42.626;25.386;2023-08-06T03:29:48;12.30;;;11.17;;
8060;SDS011;4073;42.626;25.386;2023-08-06T03:32:15;12.47;;;11.10;;
8060;SDS011;4073;42.626;25.386;2023-08-06T03:34:40;15.17;;;11.00;;
8060;SDS011;4073;42.626;25.386;2023-08-06T03:37:06;15.00;;;11.77;;
8060;SDS011;4073;42.626;25.386;2023-08-06T03:39:31;16.03;;;11.57;;
8060;SDS011;4073;42.626;25.386;2023-08-06T03:41:57;13.17;;;11.77;;
8060;SDS011;4073;42.626;25.386;2023-08-06T03:44:22;14.60;;;11.60;;
8060;SDS011;4073;42.626;25.386;2023-08-06T03:46:47;12.93;;;11.63;;
8060;SDS011;4073;42.626;25.386;2023-08-06T03:49:13;13.03;;;11.13;;
8060;SDS011;4073;42.626;25.386;2023-08-06T03:51:38;12.63;;;11.53;;
8060;SDS011;4073;42.626;25.386;2023-08-06T03:54:04;17.30;;;15.47;;
8060;SDS011;4073;42.626;25.386;2023-08-06T03:56:29;13.63;;;12.27;;
8060;SDS011;4073;42.626;25.386;2023-08-06T03:58:54;17.70;;;12.00;;
8060;SDS011;4073;42.626;25.386;2023-08-06T04:01:20;14.47;;;12.67;;
8060;SDS011;4073;42.626;25.386;2023-08-06T04:03:45;13.03;;;11.53;;
8060;SDS011;4073;42.626;25.386;2023-08-06T04:06:11;13.80;;;12.20;;
8060;SDS011;4073;42.626;25.386;2023-08-06T04:08:36;16.07;;;11.77;;
8060;SDS011;4073;42.626;25.386;2023-08-06T04:11:02;15.53;;;12.00;;
8060;SDS011;4073;42.626;25.386;2023-08-06T04:13:28;15.80;;;13.03;;
8060;SDS011;4073;42.626;25.386;2023-08-06T04:15:53;13.27;;;12.07;;
8060;SDS011;4073;42.626;25.386;2023-08-06T04:18:19;13.03;;;11.70;;
8060;SDS011;4073;42.626;25.386;2023-08-06T04:20:45;11.77;;;10.60;;
8060;SDS011;4073;42.626;25.386;2023-08-06T04:23:11;13.90;;;11.90;;
8060;SDS011;4073;42.626;25.386;2023-08-06T04:25:37;15.00;;;11.67;;
8060;SDS011;4073;42.626;25.386;2023-08-06T04:28:03;13.10;;;11.80;;
8060;SDS011;4073;42.626;25.386;2023-08-06T04:30:29;13.10;;;11.90;;
8060;SDS011;4073;42.626;25.386;2023-08-06T04:32:56;15.13;;;12.43;;
8060;SDS011;4073;42.626;25.386;2023-08-06T04:35:22;15.13;;;12.67;;
8060;SDS011;4073;42.626;25.386;2023-08-06T04:37:47;18.00;;;12.47;;
8060;SDS011;4073;42.626;25.386;2023-08-06T04:40:12;16.23;;;12.50;;
8060;SDS011;4073;42.626;25.386;2023-08-06T04:42:38;14.57;;;13.03;;
8060;SDS011;4073;42.626;25.386;2023-08-06T04:45:03;13.90;;;12.57;;
8060;SDS011;4073;42.626;25.386;2023-08-06T04:47:29;14.43;;;12.93;;
8060;SDS011;4073;42.626;25.386;2023-08-06T04:49:55;12.67;;;11.10;;
8060;SDS011;4073;42.626;25.386;2023-08-06T04:52:20;12.47;;;11.27;;
8060;SDS011;4073;42.626;25.386;2023-08-06T04:54:46;12.73;;;11.50;;
8060;SDS011;4073;42.626;25.386;2023-08-06T04:57:11;13.17;;;11.87;;
8060;SDS011;4073;42.626;25.386;2023-08-06T04:59:37;13.47;;;12.10;;
8060;SDS011;4073;42.626;25.386;2023-08-06T05:02:02;13.83;;;12.03;;
8060;SDS011;4073;42.626;25.386;2023-08-06T05:04:28;14.57;;;11.73;;
8060;SDS011;4073;42.626;25.386;2023-08-06T05:06:53;13.03;;;11.77;;
8060;SDS011;4073;42.626;25.386;2023-08-06T05:09:19;13.20;;;10.87;;
8060;SDS011;4073;42.626;25.386;2023-08-06T05:11:45;17.83;;;11.97;;
8060;SDS011;4073;42.626;25.386;2023-08-06T05:14:14;13.00;;;11.87;;
8060;SDS011;4073;42.626;25.386;2023-08-06T05:16:39;13.73;;;11.67;;
8060;SDS011;4073;42.626;25.386;2023-08-06T05:19:05;11.70;;;10.50;;
8060;SDS011;4073;42.626;25.386;2023-08-06T05:21:30;12.47;;;11.20;;
8060;SDS011;4073;42.626;25.386;2023-08-06T05:23:56;13.00;;;11.70;;
8060;SDS011;4073;42.626;25.386;2023-08-06T05:26:21;13.80;;;11.47;;
8060;SDS011;4073;42.626;25.386;2023-08-06T05:28:47;13.50;;;12.30;;
8060;SDS011;4073;42.626;25.386;2023-08-06T05:31:12;12.63;;;11.47;;
8060;SDS011;4073;42.626;25.386;2023-08-06T05:33:38;17.20;;;12.97;;
8060;SDS011;4073;42.626;25.386;2023-08-06T05:36:03;14.63;;;12.20;;
8060;SDS011;4073;42.626;25.386;2023-08-06T05:38:29;12.80;;;11.60;;
8060;SDS011;4073;42.626;25.386;2023-08-06T05:40:55;13.87;;;11.77;;
8060;SDS011;4073;42.626;25.386;2023-08-06T05:43:21;13.40;;;12.20;;
8060;SDS011;4073;42.626;25.386;2023-08-06T05:45:49;14.10;;;11.97;;
8060;SDS011;4073;42.626;25.386;2023-08-06T05:48:15;13.33;;;11.93;;
8060;SDS011;4073;42.626;25.386;2023-08-06T05:50:41;14.40;;;12.23;;
8060;SDS011;4073;42.626;25.386;2023-08-06T05:53:06;13.13;;;11.83;;
8060;SDS011;4073;42.626;25.386;2023-08-06T05:55:32;13.53;;;11.53;;
8060;SDS011;4073;42.626;25.386;2023-08-06T05:57:58;12.40;;;11.23;;
8060;SDS011;4073;42.626;25.386;2023-08-06T06:00:24;13.03;;;11.70;;
8060;SDS011;4073;42.626;25.386;2023-08-06T06:02:49;14.53;;;11.07;;
8060;SDS011;4073;42.626;25.386;2023-08-06T06:05:15;15.70;;;11.07;;
8060;SDS011;4073;42.626;25.386;2023-08-06T06:07:40;10.57;;;9.57;;
8060;SDS011;4073;42.626;25.386;2023-08-06T06:10:06;12.13;;;10.40;;
8060;SDS011;4073;42.626;25.386;2023-08-06T06:12:32;9.90;;;8.77;;
8060;SDS011;4073;42.626;25.386;2023-08-06T06:14:57;11.40;;;10.20;;
8060;SDS011;4073;42.626;25.386;2023-08-06T06:17:23;11.33;;;10.13;;
8060;SDS011;4073;42.626;25.386;2023-08-06T06:19:48;10.30;;;9.30;;
8060;SDS011;4073;42.626;25.386;2023-08-06T06:22:14;11.47;;;9.47;;
8060;SDS011;4073;42.626;25.386;2023-08-06T06:24:40;9.53;;;8.60;;
8060;SDS011;4073;42.626;25.386;2023-08-06T06:27:05;11.90;;;9.00;;
8060;SDS011;4073;42.626;25.386;2023-08-06T06:29:31;16.10;;;9.87;;
8060;SDS011;4073;42.626;25.386;2023-08-06T06:31:56;12.57;;;9.27;;
8060;SDS011;4073;42.626;25.386;2023-08-06T06:34:21;9.97;;;8.97;;
8060;SDS011;4073;42.626;25.386;2023-08-06T06:36:47;11.83;;;8.83;;
8060;SDS011;4073;42.626;25.386;2023-08-06T06:39:13;9.73;;;8.83;;
8060;SDS011;4073;42.626;25.386;2023-08-06T06:41:38;9.27;;;8.20;;
8060;SDS011;4073;42.626;25.386;2023-08-06T06:44:05;8.13;;;7.33;;
8060;SDS011;4073;42.626;25.386;2023-08-06T06:46:31;8.40;;;7.50;;
8060;SDS011;4073;42.626;25.386;2023-08-06T06:48:56;11.83;;;8.10;;
8060;SDS011;4073;42.626;25.386;2023-08-06T06:51:22;8.87;;;7.97;;
8060;SDS011;4073;42.626;25.386;2023-08-06T06:53:47;8.33;;;7.53;;
8060;SDS011;4073;42.626;25.386;2023-08-06T06:56:13;8.57;;;7.77;;
8060;SDS011;4073;42.626;25.386;2023-08-06T06:58:38;9.40;;;8.40;;
8060;SDS011;4073;42.626;25.386;2023-08-06T07:01:06;9.53;;;8.63;;
8060;SDS011;4073;42.626;25.386;2023-08-06T07:03:31;13.77;;;9.47;;
8060;SDS011;4073;42.626;25.386;2023-08-06T07:05:57;14.20;;;10.23;;
8060;SDS011;4073;42.626;25.386;2023-08-06T07:08:26;12.60;;;11.17;;
8060;SDS011;4073;42.626;25.386;2023-08-06T07:10:59;15.17;;;12.13;;
8060;SDS011;4073;42.626;25.386;2023-08-06T07:13:26;24.30;;;14.83;;
8060;SDS011;4073;42.626;25.386;2023-08-06T07:15:51;19.07;;;13.07;;
8060;SDS011;4073;42.626;25.386;2023-08-06T07:18:17;17.00;;;13.00;;
8060;SDS011;4073;42.626;25.386;2023-08-06T07:20:47;16.70;;;13.53;;
8060;SDS011;4073;42.626;25.386;2023-08-06T07:23:17;18.87;;;13.57;;
8060;SDS011;4073;42.626;25.386;2023-08-06T07:25:47;17.33;;;12.87;;
8060;SDS011;4073;42.626;25.386;2023-08-06T07:28:13;14.97;;;13.40;;
8060;SDS011;4073;42.626;25.386;2023-08-06T07:30:39;17.93;;;13.73;;
8060;SDS011;4073;42.626;25.386;2023-08-06T07:33:05;15.07;;;13.47;;
8060;SDS011;4073;42.626;25.386;2023-08-06T07:35:31;18.23;;;14.00;;
8060;SDS011;4073;42.626;25.386;2023-08-06T07:37:57;18.17;;;15.00;;
8060;SDS011;4073;42.626;25.386;2023-08-06T07:40:22;18.23;;;15.83;;
8060;SDS011;4073;42.626;25.386;2023-08-06T07:42:47;16.70;;;14.83;;
8060;SDS011;4073;42.626;25.386;2023-08-06T07:45:13;16.77;;;14.97;;
8060;SDS011;4073;42.626;25.386;2023-08-06T07:47:39;16.97;;;14.80;;
8060;SDS011;4073;42.626;25.386;2023-08-06T07:50:05;20.17;;;16.40;;
8060;SDS011;4073;42.626;25.386;2023-08-06T07:52:31;17.77;;;16.03;;
8060;SDS011;4073;42.626;25.386;2023-08-06T07:54:56;21.07;;;16.83;;
8060;SDS011;4073;42.626;25.386;2023-08-06T07:57:22;19.23;;;17.23;;
8060;SDS011;4073;42.626;25.386;2023-08-06T07:59:47;22.10;;;19.90;;
8060;SDS011;4073;42.626;25.386;2023-08-06T08:02:12;27.30;;;20.43;;
8060;SDS011;4073;42.626;25.386;2023-08-06T08:04:38;22.43;;;19.97;;
8060;SDS011;4073;42.626;25.386;2023-08-06T08:07:03;23.43;;;19.80;;
8060;SDS011;4073;42.626;25.386;2023-08-06T08:09:29;23.20;;;20.87;;
8060;SDS011;4073;42.626;25.386;2023-08-06T08:11:55;23.03;;;18.77;;
8060;SDS011;4073;42.626;25.386;2023-08-06T08:14:20;22.10;;;19.97;;
8060;SDS011;4073;42.626;25.386;2023-08-06T08:16:46;22.03;;;19.83;;
8060;SDS011;4073;42.626;25.386;2023-08-06T08:19:11;21.80;;;19.73;;
8060;SDS011;4073;42.626;25.386;2023-08-06T08:21:36;21.90;;;19.73;;
8060;SDS011;4073;42.626;25.386;2023-08-06T08:24:03;21.13;;;19.03;;
8060;SDS011;4073;42.626;25.386;2023-08-06T08:26:29;21.30;;;19.13;;
8060;SDS011;4073;42.626;25.386;2023-08-06T08:28:55;21.63;;;19.47;;
8060;SDS011;4073;42.626;25.386;2023-08-06T08:31:21;20.10;;;18.00;;
8060;SDS011;4073;42.626;25.386;2023-08-06T08:33:47;18.77;;;16.50;;
8060;SDS011;4073;42.626;25.386;2023-08-06T08:36:12;17.60;;;15.90;;
8060;SDS011;4073;42.626;25.386;2023-08-06T08:38:38;17.93;;;16.13;;
8060;SDS011;4073;42.626;25.386;2023-08-06T08:41:04;20.90;;;15.97;;
8060;SDS011;4073;42.626;25.386;2023-08-06T08:43:29;18.13;;;16.13;;
8060;SDS011;4073;42.626;25.386;2023-08-06T08:45:56;18.03;;;16.37;;
8060;SDS011;4073;42.626;25.386;2023-08-06T08:48:25;16.30;;;14.90;;
8060;SDS011;4073;42.626;25.386;2023-08-06T08:50:52;19.63;;;17.60;;
8060;SDS011;4073;42.626;25.386;2023-08-06T08:53:18;18.20;;;15.70;;
8060;SDS011;4073;42.626;25.386;2023-08-06T08:55:46;15.70;;;14.23;;
8060;SDS011;4073;42.626;25.386;2023-08-06T08:58:12;16.17;;;14.27;;
8060;SDS011;4073;42.626;25.386;2023-08-06T09:00:38;16.53;;;14.87;;
8060;SDS011;4073;42.626;25.386;2023-08-06T09:03:06;15.93;;;14.33;;
8060;SDS011;4073;42.626;25.386;2023-08-06T09:05:32;15.83;;;14.30;;
8060;SDS011;4073;42.626;25.386;2023-08-06T09:08:04;15.87;;;14.30;;
8060;SDS011;4073;42.626;25.386;2023-08-06T09:10:30;14.77;;;13.30;;
8060;SDS011;4073;42.626;25.386;2023-08-06T09:12:56;17.17;;;15.53;;
8060;SDS011;4073;42.626;25.386;2023-08-06T09:15:26;16.17;;;14.60;;
8060;SDS011;4073;42.626;25.386;2023-08-06T09:17:53;18.10;;;16.23;;
8060;SDS011;4073;42.626;25.386;2023-08-06T09:20:18;18.10;;;16.30;;
8060;SDS011;4073;42.626;25.386;2023-08-06T09:22:44;17.97;;;16.23;;
8060;SDS011;4073;42.626;25.386;2023-08-06T09:25:10;17.93;;;15.87;;
8060;SDS011;4073;42.626;25.386;2023-08-06T09:27:38;19.27;;;17.27;;
8060;SDS011;4073;42.626;25.386;2023-08-06T09:30:05;17.33;;;15.77;;
8060;SDS011;4073;42.626;25.386;2023-08-06T09:32:47;19.63;;;17.77;;
8060;SDS011;4073;42.626;25.386;2023-08-06T09:35:19;17.83;;;16.07;;
8060;SDS011;4073;42.626;25.386;2023-08-06T09:37:45;17.97;;;16.17;;
8060;SDS011;4073;42.626;25.386;2023-08-06T09:40:29;19.70;;;17.60;;
8060;SDS011;4073;42.626;25.386;2023-08-06T09:42:56;20.40;;;18.17;;
8060;SDS011;4073;42.626;25.386;2023-08-06T09:45:24;18.30;;;16.17;;
8060;SDS011;4073;42.626;25.386;2023-08-06T09:47:56;17.17;;;15.57;;
8060;SDS011;4073;42.626;25.386;2023-08-06T09:50:22;18.93;;;17.17;;
8060;SDS011;4073;42.626;25.386;2023-08-06T09:52:51;16.03;;;14.63;;
8060;SDS011;4073;42.626;25.386;2023-08-06T09:55:17;16.47;;;14.97;;
8060;SDS011;4073;42.626;25.386;2023-08-06T09:57:43;16.87;;;15.20;;
8060;SDS011;4073;42.626;25.386;2023-08-06T10:00:09;20.00;;;18.10;;
8060;SDS011;4073;42.626;25.386;2023-08-06T10:02:39;19.87;;;18.07;;
8060;SDS011;4073;42.626;25.386;2023-08-06T10:05:09;21.00;;;19.07;;
8060;SDS011;4073;42.626;25.386;2023-08-06T10:07:34;22.83;;;20.83;;
8060;SDS011;4073;42.626;25.386;2023-08-06T10:10:01;19.07;;;17.17;;
8060;SDS011;4073;42.626;25.386;2023-08-06T10:12:28;5.30;;;4.80;;
8060;SDS011;4073;42.626;25.386;2023-08-06T10:14:57;7.93;;;5.73;;
8060;SDS011;4073;42.626;25.386;2023-08-06T10:17:26;9.30;;;4.67;;
8060;SDS011;4073;42.626;25.386;2023-08-06T10:19:53;5.83;;;3.83;;
8060;SDS011;4073;42.626;25.386;2023-08-06T10:22:21;8.27;;;3.40;;
8060;SDS011;4073;42.626;25.386;2023-08-06T10:24:57;7.97;;;3.37;;
8060;SDS011;4073;42.626;25.386;2023-08-06T10:33:05;9.77;;;4.43;;
8060;SDS011;4073;42.626;25.386;2023-08-06T10:38:09;4.97;;;3.07;;
8060;SDS011;4073;42.626;25.386;2023-08-06T10:40:40;5.40;;;3.17;;
8060;SDS011;4073;42.626;25.386;2023-08-06T10:43:07;4.47;;;2.77;;
8060;SDS011;4073;42.626;25.386;2023-08-06T10:45:34;7.60;;;3.63;;
8060;SDS011;4073;42.626;25.386;2023-08-06T10:48:01;4.00;;;2.67;;
8060;SDS011;4073;42.626;25.386;2023-08-06T10:50:27;3.87;;;2.27;;
8060;SDS011;4073;42.626;25.386;2023-08-06T10:52:52;6.63;;;2.33;;
8060;SDS011;4073;42.626;25.386;2023-08-06T10:55:28;4.97;;;2.60;;
8060;SDS011;4073;42.626;25.386;2023-08-06T10:57:54;2.23;;;2.03;;
8060;SDS011;4073;42.626;25.386;2023-08-06T11:00:21;2.43;;;2.23;;
8060;SDS011;4073;42.626;25.386;2023-08-06T11:02:49;3.17;;;2.43;;
8060;SDS011;4073;42.626;25.386;2023-08-06T11:05:15;5.27;;;3.10;;
8060;SDS011;4073;42.626;25.386;2023-08-06T11:07:41;7.13;;;2.67;;
8060;SDS011;4073;42.626;25.386;2023-08-06T11:10:08;6.37;;;2.30;;
8060;SDS011;4073;42.626;25.386;2023-08-06T11:12:35;4.10;;;3.00;;
8060;SDS011;4073;42.626;25.386;2023-08-06T11:15:01;3.27;;;2.13;;
8060;SDS011;4073;42.626;25.386;2023-08-06T11:17:28;11.73;;;3.80;;
8060;SDS011;4073;42.626;25.386;2023-08-06T11:19:54;3.07;;;1.73;;
8060;SDS011;4073;42.626;25.386;2023-08-06T11:22:20;2.60;;;2.03;;
8060;SDS011;4073;42.626;25.386;2023-08-06T11:24:47;16.17;;;3.63;;
8060;SDS011;4073;42.626;25.386;2023-08-06T11:27:14;6.00;;;2.60;;
8060;SDS011;4073;42.626;25.386;2023-08-06T11:29:40;4.93;;;2.57;;
8060;SDS011;4073;42.626;25.386;2023-08-06T11:32:07;2.80;;;2.37;;
8060;SDS011;4073;42.626;25.386;2023-08-06T11:34:33;2.80;;;2.00;;
8060;SDS011;4073;42.626;25.386;2023-08-06T11:36:59;2.10;;;1.83;;
8060;SDS011;4073;42.626;25.386;2023-08-06T11:39:24;2.57;;;2.37;;
8060;SDS011;4073;42.626;25.386;2023-08-06T11:41:50;11.67;;;3.10;;
8060;SDS011;4073;42.626;25.386;2023-08-06T11:44:18;10.73;;;3.93;;
8060;SDS011;4073;42.626;25.386;2023-08-06T11:46:54;3.10;;;2.80;;
8060;SDS011;4073;42.626;25.386;2023-08-06T11:52:24;2.57;;;2.37;;
8060;SDS011;4073;42.626;25.386;2023-08-06T11:57:43;5.77;;;2.70;;
8060;SDS011;4073;42.626;25.386;2023-08-06T12:00:11;2.63;;;2.40;;
8060;SDS011;4073;42.626;25.386;2023-08-06T12:02:41;2.50;;;2.30;;
8060;SDS011;4073;42.626;25.386;2023-08-06T12:05:11;3.93;;;2.60;;
8060;SDS011;4073;42.626;25.386;2023-08-06T12:07:42;2.93;;;2.67;;
8060;SDS011;4073;42.626;25.386;2023-08-06T12:10:09;3.13;;;2.70;;
8060;SDS011;4073;42.626;25.386;2023-08-06T12:12:35;17.50;;;4.43;;
8060;SDS011;4073;42.626;25.386;2023-08-06T12:15:02;3.70;;;3.13;;
8060;SDS011;4073;42.626;25.386;2023-08-06T12:17:28;17.70;;;3.80;;
8060;SDS011;4073;42.626;25.386;2023-08-06T12:19:53;6.47;;;2.93;;
8060;SDS011;4073;42.626;25.386;2023-08-06T12:22:19;5.10;;;3.20;;
8060;SDS011;4073;42.626;25.386;2023-08-06T12:24:45;6.47;;;3.10;;
8060;SDS011;4073;42.626;25.386;2023-08-06T12:27:12;115.47;;;13.07;;
8060;SDS011;4073;42.626;25.386;2023-08-06T12:29:45;79.67;;;12.13;;
8060;SDS011;4073;42.626;25.386;2023-08-06T12:32:12;25.17;;;5.10;;
8060;SDS011;4073;42.626;25.386;2023-08-06T12:34:39;4.40;;;3.13;;
8060;SDS011;4073;42.626;25.386;2023-08-06T12:37:06;3.63;;;2.63;;
8060;SDS011;4073;42.626;25.386;2023-08-06T12:39:35;3.83;;;2.50;;
8060;SDS011;4073;42.626;25.386;2023-08-06T12:42:01;4.27;;;3.17;;
8060;SDS011;4073;42.626;25.386;2023-08-06T12:44:28;6.70;;;3.40;;
8060;SDS011;4073;42.626;25.386;2023-08-06T12:46:53;3.53;;;3.10;;
8060;SDS011;4073;42.626;25.386;2023-08-06T12:49:19;4.83;;;2.53;;
8060;SDS011;4073;42.626;25.386;2023-08-06T12:51:50;5.23;;;3.00;;
8060;SDS011;4073;42.626;25.386;2023-08-06T12:54:17;3.20;;;2.90;;
8060;SDS011;4073;42.626;25.386;2023-08-06T12:56:43;4.00;;;3.03;;
8060;SDS011;4073;42.626;25.386;2023-08-06T12:59:09;2.30;;;2.10;;
8060;SDS011;4073;42.626;25.386;2023-08-06T13:01:36;2.87;;;2.63;;
8060;SDS011;4073;42.626;25.386;2023-08-06T13:04:02;2.80;;;2.50;;
8060;SDS011;4073;42.626;25.386;2023-08-06T13:06:28;2.47;;;2.27;;
8060;SDS011;4073;42.626;25.386;2023-08-06T13:08:54;3.50;;;2.70;;
8060;SDS011;4073;42.626;25.386;2023-08-06T13:11:19;3.00;;;2.73;;
8060;SDS011;4073;42.626;25.386;2023-08-06T13:13:45;3.23;;;2.60;;
8060;SDS011;4073;42.626;25.386;2023-08-06T13:16:10;3.03;;;2.57;;
8060;SDS011;4073;42.626;25.386;2023-08-06T13:18:35;4.20;;;3.00;;
8060;SDS011;4073;42.626;25.386;2023-08-06T13:21:01;3.13;;;2.60;;
8060;SDS011;4073;42.626;25.386;2023-08-06T13:23:26;4.80;;;3.03;;
8060;SDS011;4073;42.626;25.386;2023-08-06T13:25:53;3.80;;;2.77;;
8060;SDS011;4073;42.626;25.386;2023-08-06T13:28:19;3.00;;;2.80;;
8060;SDS011;4073;42.626;25.386;2023-08-06T13:30:45;3.30;;;3.00;;
8060;SDS011;4073;42.626;25.386;2023-08-06T13:33:10;2.73;;;2.50;;
8060;SDS011;4073;42.626;25.386;2023-08-06T13:35:36;4.67;;;2.80;;
8060;SDS011;4073;42.626;25.386;2023-08-06T13:38:02;2.80;;;2.60;;
8060;SDS011;4073;42.626;25.386;2023-08-06T13:40:28;4.23;;;3.67;;
8060;SDS011;4073;42.626;25.386;2023-08-06T13:42:55;3.57;;;3.27;;
8060;SDS011;4073;42.626;25.386;2023-08-06T13:45:20;3.27;;;3.03;;
8060;SDS011;4073;42.626;25.386;2023-08-06T13:47:46;3.27;;;3.07;;
8060;SDS011;4073;42.626;25.386;2023-08-06T13:50:11;3.10;;;2.90;;
8060;SDS011;4073;42.626;25.386;2023-08-06T13:52:37;4.17;;;3.00;;
8060;SDS011;4073;42.626;25.386;2023-08-06T13:55:02;4.07;;;3.30;;
8060;SDS011;4073;42.626;25.386;2023-08-06T13:57:29;3.70;;;3.40;;
8060;SDS011;4073;42.626;25.386;2023-08-06T13:59:54;4.77;;;3.20;;
8060;SDS011;4073;42.626;25.386;2023-08-06T14:02:20;3.50;;;3.20;;
8060;SDS011;4073;42.626;25.386;2023-08-06T14:04:45;3.57;;;3.20;;
8060;SDS011;4073;42.626;25.386;2023-08-06T14:07:11;3.40;;;3.10;;
8060;SDS011;4073;42.626;25.386;2023-08-06T14:09:36;4.10;;;3.70;;
8060;SDS011;4073;42.626;25.386;2023-08-06T14:12:02;4.23;;;3.83;;
8060;SDS011;4073;42.626;25.386;2023-08-06T14:14:28;7.23;;;3.40;;
8060;SDS011;4073;42.626;25.386;2023-08-06T14:16:53;3.93;;;3.07;;
8060;SDS011;4073;42.626;25.386;2023-08-06T14:19:19;3.63;;;3.03;;
8060;SDS011;4073;42.626;25.386;2023-08-06T14:21:45;4.63;;;3.23;;
8060;SDS011;4073;42.626;25.386;2023-08-06T14:24:11;2.90;;;2.60;;
8060;SDS011;4073;42.626;25.386;2023-08-06T14:26:36;6.20;;;2.90;;
8060;SDS011;4073;42.626;25.386;2023-08-06T14:29:02;4.03;;;2.90;;
8060;SDS011;4073;42.626;25.386;2023-08-06T14:31:28;8.67;;;4.00;;
8060;SDS011;4073;42.626;25.386;2023-08-06T14:33:53;11.63;;;3.73;;
8060;SDS011;4073;42.626;25.386;2023-08-06T14:36:19;6.87;;;2.97;;
8060;SDS011;4073;42.626;25.386;2023-08-06T14:38:44;14.17;;;4.90;;
8060;SDS011;4073;42.626;25.386;2023-08-06T14:41:10;4.60;;;2.83;;
8060;SDS011;4073;42.626;25.386;2023-08-06T14:43:36;13.53;;;3.87;;
8060;SDS011;4073;42.626;25.386;2023-08-06T14:46:01;5.60;;;3.37;;
8060;SDS011;4073;42.626;25.386;2023-08-06T14:48:27;4.17;;;3.20;;
8060;SDS011;4073;42.626;25.386;2023-08-06T14:50:53;4.53;;;2.90;;
8060;SDS011;4073;42.626;25.386;2023-08-06T14:53:19;3.43;;;3.13;;
8060;SDS011;4073;42.626;25.386;2023-08-06T14:55:44;10.57;;;4.10;;
8060;SDS011;4073;42.626;25.386;2023-08-06T14:58:10;4.63;;;3.47;;
8060;SDS011;4073;42.626;25.386;2023-08-06T15:00:35;8.53;;;3.33;;